<?xml version="1.0" encoding="UTF-8" standalone="no" ?>
<gpx xmlns="http://www.topografix.com/GPX/1/1" xmlns:xsi="http://www.w3.org/2001/XMLSchema-instance" xsi:schemaLocation="http://www.topografix.com/GPX/1/1 http://www.topografix.com/GPX/1/1/gpx.xsd" version="1.1" creator="VisuGPX - https://www.visugpx.com">
  <metadata>
    <name>Cirque de Quint (Drôme)</name>
    <desc><![CDATA[Randonnée assez difficile à partir de Saint-Julien-en-Quint]]></desc>
  </metadata>
  <trk>
    <name><![CDATA[Cirque de Quint - AD]]></name>
    <trkseg>
      <trkpt lat="44.8666" lon="5.30276">
        <ele>663</ele>
        <time>2011-07-16T07:30:00Z</time>
      </trkpt>
      <trkpt lat="44.86613" lon="5.30215">
        <ele>668</ele>
        <time>2011-07-16T07:31:31.23Z</time>
      </trkpt>
      <trkpt lat="44.86577" lon="5.30124">
        <ele>677</ele>
        <time>2011-07-16T07:33:17.52Z</time>
      </trkpt>
      <trkpt lat="44.86592" lon="5.30101">
        <ele>679</ele>
        <time>2011-07-16T07:33:49.03Z</time>
      </trkpt>
      <trkpt lat="44.86671" lon="5.30095">
        <ele>689</ele>
        <time>2011-07-16T07:35:45.38Z</time>
      </trkpt>
      <trkpt lat="44.86789" lon="5.30098">
        <ele>704</ele>
        <time>2011-07-16T07:38:36.24Z</time>
      </trkpt>
      <trkpt lat="44.86857" lon="5.30069">
        <ele>712</ele>
        <time>2011-07-16T07:40:11.56Z</time>
      </trkpt>
      <trkpt lat="44.8699" lon="5.30069">
        <ele>725</ele>
        <time>2011-07-16T07:43:22.67Z</time>
      </trkpt>
      <trkpt lat="44.87129" lon="5.30148">
        <ele>746</ele>
        <time>2011-07-16T07:47:37.19Z</time>
      </trkpt>
      <trkpt lat="44.87228" lon="5.3014">
        <ele>767</ele>
        <time>2011-07-16T07:50:57.93Z</time>
      </trkpt>
      <trkpt lat="44.87327" lon="5.30093">
        <ele>792</ele>
        <time>2011-07-16T07:54:37.29Z</time>
      </trkpt>
      <trkpt lat="44.87385" lon="5.30129">
        <ele>806</ele>
        <time>2011-07-16T07:56:29.48Z</time>
      </trkpt>
      <trkpt lat="44.87554" lon="5.30182">
        <ele>835</ele>
        <time>2011-07-16T08:00:52.93Z</time>
      </trkpt>
      <trkpt lat="44.87658" lon="5.3021">
        <ele>844</ele>
        <time>2011-07-16T08:03:06.54Z</time>
      </trkpt>
      <trkpt lat="44.87782" lon="5.30234">
        <ele>852</ele>
        <time>2011-07-16T08:05:45.81Z</time>
      </trkpt>
      <trkpt lat="44.8789" lon="5.30249">
        <ele>863</ele>
        <time>2011-07-16T08:08:23.03Z</time>
      </trkpt>
      <trkpt lat="44.87969" lon="5.30252">
        <ele>875</ele>
        <time>2011-07-16T08:10:36.58Z</time>
      </trkpt>
      <trkpt lat="44.8806" lon="5.30291">
        <ele>892</ele>
        <time>2011-07-16T08:13:30.97Z</time>
      </trkpt>
      <trkpt lat="44.88165" lon="5.30286">
        <ele>913</ele>
        <time>2011-07-16T08:16:48.04Z</time>
      </trkpt>
      <trkpt lat="44.88258" lon="5.30286">
        <ele>932</ele>
        <time>2011-07-16T08:19:42.40Z</time>
      </trkpt>
      <trkpt lat="44.88366" lon="5.30302">
        <ele>953</ele>
        <time>2011-07-16T08:23:07.08Z</time>
      </trkpt>
      <trkpt lat="44.88486" lon="5.30346">
        <ele>979</ele>
        <time>2011-07-16T08:27:10.36Z</time>
      </trkpt>
      <trkpt lat="44.88592" lon="5.30383">
        <ele>1003</ele>
        <time>2011-07-16T08:31:00.91Z</time>
      </trkpt>
      <trkpt lat="44.88693" lon="5.30419">
        <ele>1029</ele>
        <time>2011-07-16T08:34:56.65Z</time>
      </trkpt>
      <trkpt lat="44.88782" lon="5.30463">
        <ele>1053</ele>
        <time>2011-07-16T08:38:38.88Z</time>
      </trkpt>
      <trkpt lat="44.8885" lon="5.30552">
        <ele>1078</ele>
        <time>2011-07-16T08:42:24.99Z</time>
      </trkpt>
      <trkpt lat="44.8892" lon="5.30583">
        <ele>1098</ele>
        <time>2011-07-16T08:45:23.58Z</time>
      </trkpt>
      <trkpt lat="44.88965" lon="5.30589">
        <ele>1110</ele>
        <time>2011-07-16T08:47:13.77Z</time>
      </trkpt>
      <trkpt lat="44.89023" lon="5.30578">
        <ele>1126</ele>
        <time>2011-07-16T08:49:29.33Z</time>
      </trkpt>
      <trkpt lat="44.88996" lon="5.30662">
        <ele>1142</ele>
        <time>2011-07-16T08:51:50.50Z</time>
      </trkpt>
      <trkpt lat="44.88981" lon="5.30761">
        <ele>1159</ele>
        <time>2011-07-16T08:54:10.05Z</time>
      </trkpt>
      <trkpt lat="44.89069" lon="5.30651">
        <ele>1182</ele>
        <time>2011-07-16T08:57:33.47Z</time>
      </trkpt>
      <trkpt lat="44.8915" lon="5.30597">
        <ele>1195</ele>
        <time>2011-07-16T08:59:51.21Z</time>
      </trkpt>
      <trkpt lat="44.89235" lon="5.30526">
        <ele>1208</ele>
        <time>2011-07-16T09:02:12.63Z</time>
      </trkpt>
      <trkpt lat="44.89305" lon="5.30487">
        <ele>1216</ele>
        <time>2011-07-16T09:03:56.55Z</time>
      </trkpt>
      <trkpt lat="44.89398" lon="5.3045">
        <ele>1227</ele>
        <time>2011-07-16T09:06:12.60Z</time>
      </trkpt>
      <trkpt lat="44.89308" lon="5.30547">
        <ele>1240</ele>
        <time>2011-07-16T09:08:54.33Z</time>
      </trkpt>
      <trkpt lat="44.8924" lon="5.30659">
        <ele>1253</ele>
        <time>2011-07-16T09:11:31.21Z</time>
      </trkpt>
      <trkpt lat="44.89204" lon="5.30769">
        <ele>1265</ele>
        <time>2011-07-16T09:13:42.63Z</time>
      </trkpt>
      <trkpt lat="44.89136" lon="5.30891">
        <ele>1280</ele>
        <time>2011-07-16T09:16:30.24Z</time>
      </trkpt>
      <trkpt lat="44.89236" lon="5.308">
        <ele>1296</ele>
        <time>2011-07-16T09:19:34Z</time>
      </trkpt>
      <trkpt lat="44.89341" lon="5.30719">
        <ele>1313</ele>
        <time>2011-07-16T09:22:39.23Z</time>
      </trkpt>
      <trkpt lat="44.89454" lon="5.30617">
        <ele>1332</ele>
        <time>2011-07-16T09:25:58.63Z</time>
      </trkpt>
      <trkpt lat="44.89375" lon="5.30761">
        <ele>1347</ele>
        <time>2011-07-16T09:28:52.19Z</time>
      </trkpt>
      <trkpt lat="44.89314" lon="5.30876">
        <ele>1356</ele>
        <time>2011-07-16T09:30:59.45Z</time>
      </trkpt>
      <trkpt lat="44.89254" lon="5.31019">
        <ele>1362</ele>
        <time>2011-07-16T09:33:22.47Z</time>
      </trkpt>
      <trkpt lat="44.8922" lon="5.31181">
        <ele>1368</ele>
        <time>2011-07-16T09:35:51.98Z</time>
      </trkpt>
      <trkpt lat="44.89226" lon="5.31304">
        <ele>1376</ele>
        <time>2011-07-16T09:38:02.81Z</time>
      </trkpt>
      <trkpt lat="44.89238" lon="5.31447">
        <ele>1393</ele>
        <time>2011-07-16T09:41:20.01Z</time>
      </trkpt>
      <trkpt lat="44.89231" lon="5.31581">
        <ele>1417</ele>
        <time>2011-07-16T09:45:04.83Z</time>
      </trkpt>
      <trkpt lat="44.892" lon="5.3169">
        <ele>1440</ele>
        <time>2011-07-16T09:48:27.84Z</time>
      </trkpt>
      <trkpt lat="44.8915" lon="5.31756">
        <ele>1458</ele>
        <time>2011-07-16T09:50:57.76Z</time>
      </trkpt>
      <trkpt lat="44.89139" lon="5.31855">
        <ele>1474</ele>
        <time>2011-07-16T09:53:07.25Z</time>
      </trkpt>
      <trkpt lat="44.89152" lon="5.31946">
        <ele>1484</ele>
        <time>2011-07-16T09:54:50.94Z</time>
      </trkpt>
      <trkpt lat="44.89173" lon="5.31915">
        <ele>1488</ele>
        <time>2011-07-16T09:55:35.72Z</time>
      </trkpt>
      <trkpt lat="44.89213" lon="5.31938">
        <ele>1493</ele>
        <time>2011-07-16T09:56:33.95Z</time>
      </trkpt>
      <trkpt lat="44.89273" lon="5.31928">
        <ele>1499</ele>
        <time>2011-07-16T09:57:53.80Z</time>
      </trkpt>
      <trkpt lat="44.89323" lon="5.31857">
        <ele>1506</ele>
        <time>2011-07-16T09:59:28.23Z</time>
      </trkpt>
      <trkpt lat="44.8935" lon="5.31802">
        <ele>1511</ele>
        <time>2011-07-16T10:00:37.60Z</time>
      </trkpt>
      <trkpt lat="44.89367" lon="5.31703">
        <ele>1521</ele>
        <time>2011-07-16T10:02:35.52Z</time>
      </trkpt>
      <trkpt lat="44.89385" lon="5.31638">
        <ele>1530</ele>
        <time>2011-07-16T10:04:04.27Z</time>
      </trkpt>
      <trkpt lat="44.8939" lon="5.31562">
        <ele>1540</ele>
        <time>2011-07-16T10:05:43.85Z</time>
      </trkpt>
      <trkpt lat="44.89406" lon="5.31489">
        <ele>1551</ele>
        <time>2011-07-16T10:07:29.31Z</time>
      </trkpt>
      <trkpt lat="44.89419" lon="5.31421">
        <ele>1562</ele>
        <time>2011-07-16T10:09:04.68Z</time>
      </trkpt>
      <trkpt lat="44.89451" lon="5.31325">
        <ele>1577</ele>
        <time>2011-07-16T10:11:23.75Z</time>
      </trkpt>
      <trkpt lat="44.89485" lon="5.31286">
        <ele>1585</ele>
        <time>2011-07-16T10:12:39.09Z</time>
      </trkpt>
      <trkpt lat="44.89528" lon="5.31299">
        <ele>1592</ele>
        <time>2011-07-16T10:13:49.34Z</time>
      </trkpt>
      <trkpt lat="44.89582" lon="5.31346">
        <ele>1601</ele>
        <time>2011-07-16T10:15:25.30Z</time>
      </trkpt>
      <trkpt lat="44.89629" lon="5.31328">
        <ele>1607</ele>
        <time>2011-07-16T10:16:27.70Z</time>
      </trkpt>
      <trkpt lat="44.89679" lon="5.31179">
        <ele>1616</ele>
        <time>2011-07-16T10:18:51.84Z</time>
      </trkpt>
      <trkpt lat="44.8974" lon="5.31101">
        <ele>1619</ele>
        <time>2011-07-16T10:20:27.77Z</time>
      </trkpt>
      <trkpt lat="44.89819" lon="5.31093">
        <ele>1620</ele>
        <time>2011-07-16T10:21:56.97Z</time>
      </trkpt>
      <trkpt lat="44.89878" lon="5.31046">
        <ele>1620</ele>
        <time>2011-07-16T10:23:12.51Z</time>
      </trkpt>
      <trkpt lat="44.89934" lon="5.30993">
        <ele>1619</ele>
        <time>2011-07-16T10:24:26.89Z</time>
      </trkpt>
      <trkpt lat="44.8999" lon="5.30923">
        <ele>1618</ele>
        <time>2011-07-16T10:25:50.09Z</time>
      </trkpt>
      <trkpt lat="44.90013" lon="5.30806">
        <ele>1619</ele>
        <time>2011-07-16T10:27:30.12Z</time>
      </trkpt>
      <trkpt lat="44.90047" lon="5.30743">
        <ele>1621</ele>
        <time>2011-07-16T10:28:37.14Z</time>
      </trkpt>
      <trkpt lat="44.90129" lon="5.30704">
        <ele>1625</ele>
        <time>2011-07-16T10:30:21.36Z</time>
      </trkpt>
      <trkpt lat="44.90186" lon="5.30704">
        <ele>1628</ele>
        <time>2011-07-16T10:31:32.75Z</time>
      </trkpt>
      <trkpt lat="44.90237" lon="5.30615">
        <ele>1634</ele>
        <time>2011-07-16T10:33:13.74Z</time>
      </trkpt>
      <trkpt lat="44.90287" lon="5.30511">
        <ele>1640</ele>
        <time>2011-07-16T10:35:04.62Z</time>
      </trkpt>
      <trkpt lat="44.90352" lon="5.30474">
        <ele>1644</ele>
        <time>2011-07-16T10:36:29.73Z</time>
      </trkpt>
      <trkpt lat="44.90402" lon="5.30438">
        <ele>1647</ele>
        <time>2011-07-16T10:37:37.95Z</time>
      </trkpt>
      <trkpt lat="44.90497" lon="5.30342">
        <ele>1652</ele>
        <time>2011-07-16T10:39:54.19Z</time>
      </trkpt>
      <trkpt lat="44.90547" lon="5.303">
        <ele>1652</ele>
        <time>2011-07-16T10:40:59.10Z</time>
      </trkpt>
      <trkpt lat="44.90579" lon="5.30201">
        <ele>1651</ele>
        <time>2011-07-16T10:42:25.21Z</time>
      </trkpt>
      <trkpt lat="44.9052" lon="5.30115">
        <ele>1648</ele>
        <time>2011-07-16T10:43:59.96Z</time>
      </trkpt>
      <trkpt lat="44.9043" lon="5.30073">
        <ele>1642</ele>
        <time>2011-07-16T10:45:47.17Z</time>
      </trkpt>
      <trkpt lat="44.90356" lon="5.30047">
        <ele>1636</ele>
        <time>2011-07-16T10:47:16.75Z</time>
      </trkpt>
      <trkpt lat="44.90178" lon="5.29833">
        <ele>1611</ele>
        <time>2011-07-16T10:51:55.09Z</time>
      </trkpt>
      <trkpt lat="44.90008" lon="5.29607">
        <ele>1586</ele>
        <time>2011-07-16T10:56:33.52Z</time>
      </trkpt>
      <trkpt lat="44.89921" lon="5.29526">
        <ele>1575</ele>
        <time>2011-07-16T10:58:36.71Z</time>
      </trkpt>
      <trkpt lat="44.89946" lon="5.29508">
        <ele>1572</ele>
        <time>2011-07-16T10:59:11.40Z</time>
      </trkpt>
      <trkpt lat="44.89862" lon="5.29427">
        <ele>1558</ele>
        <time>2011-07-16T11:01:30.71Z</time>
      </trkpt>
      <trkpt lat="44.89711" lon="5.2938">
        <ele>1527</ele>
        <time>2011-07-16T11:05:32.57Z</time>
      </trkpt>
      <trkpt lat="44.89619" lon="5.29344">
        <ele>1502</ele>
        <time>2011-07-16T11:08:11.86Z</time>
      </trkpt>
      <trkpt lat="44.89512" lon="5.29324">
        <ele>1476</ele>
        <time>2011-07-16T11:10:51.08Z</time>
      </trkpt>
      <trkpt lat="44.89411" lon="5.29231">
        <ele>1456</ele>
        <time>2011-07-16T11:13:15.30Z</time>
      </trkpt>
      <trkpt lat="44.89308" lon="5.29135">
        <ele>1449</ele>
        <time>2011-07-16T11:15:32.81Z</time>
      </trkpt>
      <trkpt lat="44.89238" lon="5.29062">
        <ele>1451</ele>
        <time>2011-07-16T11:17:15.98Z</time>
      </trkpt>
      <trkpt lat="44.89164" lon="5.29012">
        <ele>1455</ele>
        <time>2011-07-16T11:18:55.27Z</time>
      </trkpt>
      <trkpt lat="44.89062" lon="5.28963">
        <ele>1461</ele>
        <time>2011-07-16T11:21:07.16Z</time>
      </trkpt>
      <trkpt lat="44.89019" lon="5.28903">
        <ele>1464</ele>
        <time>2011-07-16T11:22:20.10Z</time>
      </trkpt>
      <trkpt lat="44.88959" lon="5.28804">
        <ele>1468</ele>
        <time>2011-07-16T11:24:09.44Z</time>
      </trkpt>
      <trkpt lat="44.88869" lon="5.28691">
        <ele>1472</ele>
        <time>2011-07-16T11:26:27.84Z</time>
      </trkpt>
      <trkpt lat="44.88765" lon="5.28587">
        <ele>1473</ele>
        <time>2011-07-16T11:28:50Z</time>
      </trkpt>
      <trkpt lat="44.88626" lon="5.2845">
        <ele>1468</ele>
        <time>2011-07-16T11:31:58.48Z</time>
      </trkpt>
      <trkpt lat="44.88518" lon="5.28338">
        <ele>1458</ele>
        <time>2011-07-16T11:34:33.81Z</time>
      </trkpt>
      <trkpt lat="44.88448" lon="5.28268">
        <ele>1449</ele>
        <time>2011-07-16T11:36:15.96Z</time>
      </trkpt>
      <trkpt lat="44.88369" lon="5.28174">
        <ele>1438</ele>
        <time>2011-07-16T11:38:19.20Z</time>
      </trkpt>
      <trkpt lat="44.88222" lon="5.28161">
        <ele>1422</ele>
        <time>2011-07-16T11:41:14.31Z</time>
      </trkpt>
      <trkpt lat="44.88152" lon="5.28142">
        <ele>1415</ele>
        <time>2011-07-16T11:42:37Z</time>
      </trkpt>
      <trkpt lat="44.88076" lon="5.28119">
        <ele>1409</ele>
        <time>2011-07-16T11:44:03.08Z</time>
      </trkpt>
      <trkpt lat="44.87954" lon="5.28057">
        <ele>1403</ele>
        <time>2011-07-16T11:46:28.20Z</time>
      </trkpt>
      <trkpt lat="44.87844" lon="5.27968">
        <ele>1402</ele>
        <time>2011-07-16T11:48:48.72Z</time>
      </trkpt>
      <trkpt lat="44.87804" lon="5.27931">
        <ele>1402</ele>
        <time>2011-07-16T11:49:42.65Z</time>
      </trkpt>
      <trkpt lat="44.87713" lon="5.27926">
        <ele>1404</ele>
        <time>2011-07-16T11:51:28.13Z</time>
      </trkpt>
      <trkpt lat="44.87614" lon="5.27853">
        <ele>1406</ele>
        <time>2011-07-16T11:53:32.94Z</time>
      </trkpt>
      <trkpt lat="44.87454" lon="5.27707">
        <ele>1405</ele>
        <time>2011-07-16T11:57:04.84Z</time>
      </trkpt>
      <trkpt lat="44.87339" lon="5.2767">
        <ele>1400</ele>
        <time>2011-07-16T11:59:15.65Z</time>
      </trkpt>
      <trkpt lat="44.87244" lon="5.27642">
        <ele>1394</ele>
        <time>2011-07-16T12:01:05.06Z</time>
      </trkpt>
      <trkpt lat="44.87206" lon="5.2761">
        <ele>1391</ele>
        <time>2011-07-16T12:01:55.77Z</time>
      </trkpt>
      <trkpt lat="44.87165" lon="5.27509">
        <ele>1383</ele>
        <time>2011-07-16T12:03:34.18Z</time>
      </trkpt>
      <trkpt lat="44.87093" lon="5.27537">
        <ele>1375</ele>
        <time>2011-07-16T12:05:04.12Z</time>
      </trkpt>
      <trkpt lat="44.87109" lon="5.27594">
        <ele>1369</ele>
        <time>2011-07-16T12:05:58.03Z</time>
      </trkpt>
      <trkpt lat="44.87153" lon="5.27683">
        <ele>1359</ele>
        <time>2011-07-16T12:07:33.25Z</time>
      </trkpt>
      <trkpt lat="44.87079" lon="5.27654">
        <ele>1347</ele>
        <time>2011-07-16T12:09:13.99Z</time>
      </trkpt>
      <trkpt lat="44.8702" lon="5.27623">
        <ele>1336</ele>
        <time>2011-07-16T12:10:43.92Z</time>
      </trkpt>
      <trkpt lat="44.8696" lon="5.27573">
        <ele>1322</ele>
        <time>2011-07-16T12:12:27.08Z</time>
      </trkpt>
      <trkpt lat="44.86928" lon="5.27573">
        <ele>1315</ele>
        <time>2011-07-16T12:13:19.14Z</time>
      </trkpt>
      <trkpt lat="44.86876" lon="5.27563">
        <ele>1302</ele>
        <time>2011-07-16T12:14:45.59Z</time>
      </trkpt>
      <trkpt lat="44.86888" lon="5.27594">
        <ele>1296</ele>
        <time>2011-07-16T12:15:28.39Z</time>
      </trkpt>
      <trkpt lat="44.86854" lon="5.27597">
        <ele>1287</ele>
        <time>2011-07-16T12:16:33.25Z</time>
      </trkpt>
      <trkpt lat="44.86926" lon="5.27683">
        <ele>1258</ele>
        <time>2011-07-16T12:19:55.95Z</time>
      </trkpt>
      <trkpt lat="44.86937" lon="5.27832">
        <ele>1220</ele>
        <time>2011-07-16T12:24:03.06Z</time>
      </trkpt>
      <trkpt lat="44.86888" lon="5.2779">
        <ele>1199</ele>
        <time>2011-07-16T12:26:18.76Z</time>
      </trkpt>
      <trkpt lat="44.86831" lon="5.27772">
        <ele>1177</ele>
        <time>2011-07-16T12:28:36.87Z</time>
      </trkpt>
      <trkpt lat="44.86854" lon="5.2786">
        <ele>1153</ele>
        <time>2011-07-16T12:31:08.41Z</time>
      </trkpt>
      <trkpt lat="44.8688" lon="5.27952">
        <ele>1129</ele>
        <time>2011-07-16T12:33:41.13Z</time>
      </trkpt>
      <trkpt lat="44.86905" lon="5.27999">
        <ele>1115</ele>
        <time>2011-07-16T12:35:11.49Z</time>
      </trkpt>
      <trkpt lat="44.86942" lon="5.28046">
        <ele>1098</ele>
        <time>2011-07-16T12:36:55.42Z</time>
      </trkpt>
      <trkpt lat="44.86978" lon="5.28111">
        <ele>1080</ele>
        <time>2011-07-16T12:38:50.17Z</time>
      </trkpt>
      <trkpt lat="44.87" lon="5.28189">
        <ele>1062</ele>
        <time>2011-07-16T12:40:44.62Z</time>
      </trkpt>
      <trkpt lat="44.87011" lon="5.28283">
        <ele>1042</ele>
        <time>2011-07-16T12:42:49.76Z</time>
      </trkpt>
      <trkpt lat="44.87025" lon="5.28362">
        <ele>1026</ele>
        <time>2011-07-16T12:44:34.06Z</time>
      </trkpt>
      <trkpt lat="44.87088" lon="5.28367">
        <ele>1008</ele>
        <time>2011-07-16T12:46:30.64Z</time>
      </trkpt>
      <trkpt lat="44.87104" lon="5.28471">
        <ele>986</ele>
        <time>2011-07-16T12:48:51.86Z</time>
      </trkpt>
      <trkpt lat="44.87115" lon="5.28563">
        <ele>967</ele>
        <time>2011-07-16T12:50:51.36Z</time>
      </trkpt>
      <trkpt lat="44.87095" lon="5.28612">
        <ele>956</ele>
        <time>2011-07-16T12:52:07.17Z</time>
      </trkpt>
      <trkpt lat="44.87136" lon="5.28664">
        <ele>939</ele>
        <time>2011-07-16T12:54:00.38Z</time>
      </trkpt>
      <trkpt lat="44.87127" lon="5.28758">
        <ele>917</ele>
        <time>2011-07-16T12:56:18.62Z</time>
      </trkpt>
      <trkpt lat="44.87104" lon="5.28808">
        <ele>904</ele>
        <time>2011-07-16T12:57:47.39Z</time>
      </trkpt>
      <trkpt lat="44.87088" lon="5.2891">
        <ele>879</ele>
        <time>2011-07-16T13:00:23.83Z</time>
      </trkpt>
      <trkpt lat="44.87021" lon="5.28996">
        <ele>850</ele>
        <time>2011-07-16T13:03:23Z</time>
      </trkpt>
      <trkpt lat="44.86969" lon="5.2909">
        <ele>825</ele>
        <time>2011-07-16T13:05:55.33Z</time>
      </trkpt>
      <trkpt lat="44.86903" lon="5.29116">
        <ele>807</ele>
        <time>2011-07-16T13:07:51.22Z</time>
      </trkpt>
      <trkpt lat="44.86856" lon="5.29173">
        <ele>792</ele>
        <time>2011-07-16T13:09:30.14Z</time>
      </trkpt>
      <trkpt lat="44.8682" lon="5.29261">
        <ele>776</ele>
        <time>2011-07-16T13:11:21.90Z</time>
      </trkpt>
      <trkpt lat="44.86843" lon="5.29357">
        <ele>760</ele>
        <time>2011-07-16T13:13:11.41Z</time>
      </trkpt>
      <trkpt lat="44.86892" lon="5.29378">
        <ele>750</ele>
        <time>2011-07-16T13:14:26.44Z</time>
      </trkpt>
      <trkpt lat="44.86892" lon="5.29438">
        <ele>741</ele>
        <time>2011-07-16T13:15:30.88Z</time>
      </trkpt>
      <trkpt lat="44.86908" lon="5.29522">
        <ele>728</ele>
        <time>2011-07-16T13:17:04.27Z</time>
      </trkpt>
      <trkpt lat="44.86965" lon="5.29626">
        <ele>708</ele>
        <time>2011-07-16T13:19:24.51Z</time>
      </trkpt>
      <trkpt lat="44.87025" lon="5.29665">
        <ele>695</ele>
        <time>2011-07-16T13:20:52.39Z</time>
      </trkpt>
      <trkpt lat="44.87066" lon="5.2971">
        <ele>688</ele>
        <time>2011-07-16T13:21:54.99Z</time>
      </trkpt>
      <trkpt lat="44.86984" lon="5.29748">
        <ele>679</ele>
        <time>2011-07-16T13:23:31.46Z</time>
      </trkpt>
      <trkpt lat="44.87033" lon="5.29813">
        <ele>679</ele>
        <time>2011-07-16T13:24:49.10Z</time>
      </trkpt>
      <trkpt lat="44.86972" lon="5.29852">
        <ele>682</ele>
        <time>2011-07-16T13:26:12.41Z</time>
      </trkpt>
      <trkpt lat="44.86954" lon="5.29928">
        <ele>687</ele>
        <time>2011-07-16T13:27:24.72Z</time>
      </trkpt>
      <trkpt lat="44.86853" lon="5.29959">
        <ele>695</ele>
        <time>2011-07-16T13:29:33.03Z</time>
      </trkpt>
      <trkpt lat="44.8681" lon="5.29983">
        <ele>697</ele>
        <time>2011-07-16T13:30:25.29Z</time>
      </trkpt>
      <trkpt lat="44.86752" lon="5.29978">
        <ele>696</ele>
        <time>2011-07-16T13:31:29.32Z</time>
      </trkpt>
      <trkpt lat="44.86706" lon="5.30017">
        <ele>692</ele>
        <time>2011-07-16T13:32:33.07Z</time>
      </trkpt>
      <trkpt lat="44.86643" lon="5.30061">
        <ele>684</ele>
        <time>2011-07-16T13:33:58.88Z</time>
      </trkpt>
      <trkpt lat="44.86574" lon="5.30119">
        <ele>673</ele>
        <time>2011-07-16T13:35:32.01Z</time>
      </trkpt>
      <trkpt lat="44.86659" lon="5.3028">
        <ele>663</ele>
        <time>2011-07-16T13:38:13.79Z</time>
      </trkpt>
    </trkseg>
  </trk>
</gpx>